Time;durP1;ratioP1;P1;durP2;ratioP2;P2;SDS_P1;SDS_P2;PMS_P1;PMS_P2;Temp;Humidity;BMP_temperature;BMP_pressure;BME280_temperature;BME280_humidity;BME280_pressure;Samples;Min_cycle;Max_cycle;Signal;HPM_P1;HPM_P2
2022/12/09 00:01:58;;;;;;;106.57;43.28;;;4.10;94.00;;;;;;5033584;28;20480;-74
2022/12/09 00:04:23;;;;;;;114.60;43.38;;;4.20;93.90;;;;;;5034810;28;20061;-74
2022/12/09 00:06:49;;;;;;;101.27;42.30;;;4.20;93.80;;;;;;5033238;28;20500;-76
2022/12/09 00:09:15;;;;;;;100.45;42.13;;;4.20;93.70;;;;;;5032535;28;20022;-75
2022/12/09 00:11:41;;;;;;;109.50;45.17;;;4.20;93.90;;;;;;5033196;28;20075;-74
2022/12/09 00:14:08;;;;;;;105.93;44.53;;;4.20;94.00;;;;;;5032428;28;20332;-74
2022/12/09 00:16:34;;;;;;;104.45;45.00;;;4.20;93.90;;;;;;5032622;28;20026;-75
2022/12/09 00:19:00;;;;;;;113.70;45.37;;;4.20;93.80;;;;;;5032695;28;20398;-74
2022/12/09 00:21:28;;;;;;;110.07;44.47;;;4.20;93.90;;;;;;5033776;28;20515;-74
2022/12/09 00:23:56;;;;;;;106.05;44.42;;;4.20;93.90;;;;;;5030319;28;20117;-74
2022/12/09 00:26:23;;;;;;;127.82;47.00;;;4.20;93.90;;;;;;5031938;28;20052;-74
2022/12/09 00:28:50;;;;;;;115.18;46.50;;;4.20;94.00;;;;;;5030954;28;20106;-76
2022/12/09 00:31:19;;;;;;;142.68;55.60;;;4.20;94.10;;;;;;5030163;28;20477;-75
2022/12/09 00:33:45;;;;;;;123.15;47.85;;;4.20;94.10;;;;;;5031155;28;20045;-75
2022/12/09 00:36:16;;;;;;;101.75;42.08;;;4.20;94.00;;;;;;5032816;28;20036;-76
2022/12/09 00:38:42;;;;;;;105.13;40.55;;;4.30;93.80;;;;;;5026726;28;20044;-77
2022/12/09 00:41:09;;;;;;;90.97;41.35;;;4.20;93.60;;;;;;5033079;28;20025;-75
2022/12/09 00:43:35;;;;;;;91.88;41.92;;;4.20;93.50;;;;;;5033433;28;20623;-74
2022/12/09 00:46:00;;;;;;;113.60;44.45;;;4.20;93.60;;;;;;5031002;28;20032;-76
2022/12/09 00:48:27;;;;;;;93.23;39.30;;;4.20;93.60;;;;;;5032042;28;20408;-77
2022/12/09 00:50:53;;;;;;;94.55;43.00;;;4.20;93.60;;;;;;5031376;28;20299;-75
2022/12/09 00:53:19;;;;;;;87.72;39.17;;;4.20;93.80;;;;;;5030090;28;20050;-77
2022/12/09 00:55:45;;;;;;;93.13;38.50;;;4.20;93.90;;;;;;5032229;28;20021;-77
2022/12/09 00:58:11;;;;;;;94.38;39.47;;;4.20;94.10;;;;;;5031638;28;21170;-77
2022/12/09 01:00:37;;;;;;;87.13;38.63;;;4.20;94.30;;;;;;5030721;28;20025;-77
2022/12/09 01:03:03;;;;;;;92.07;41.97;;;4.20;94.00;;;;;;5030003;28;20041;-75
2022/12/09 01:05:28;;;;;;;84.70;36.92;;;4.20;94.10;;;;;;5033165;28;20032;-75
2022/12/09 01:07:54;;;;;;;86.33;37.57;;;4.20;94.10;;;;;;5032194;28;20106;-76
2022/12/09 01:10:20;;;;;;;87.60;38.53;;;4.20;94.20;;;;;;5032833;28;20029;-76
2022/12/09 01:12:46;;;;;;;94.95;41.25;;;4.10;94.40;;;;;;5031316;28;20083;-76
2022/12/09 01:15:11;;;;;;;82.40;37.85;;;4.10;94.10;;;;;;5033053;28;20029;-75
2022/12/09 01:17:38;;;;;;;85.15;38.00;;;4.10;94.10;;;;;;5030675;28;20025;-77
2022/12/09 01:20:07;;;;;;;87.95;38.50;;;4.10;93.90;;;;;;5030860;28;20120;-76
2022/12/09 01:22:32;;;;;;;89.00;38.55;;;4.10;93.90;;;;;;5030890;28;20243;-77
2022/12/09 01:24:58;;;;;;;81.68;36.13;;;4.00;93.90;;;;;;5030873;28;20116;-74
2022/12/09 01:27:23;;;;;;;88.27;38.93;;;4.00;93.90;;;;;;5032660;28;20047;-75
2022/12/09 01:29:49;;;;;;;86.87;37.77;;;4.00;93.90;;;;;;5031521;28;20105;-77
2022/12/09 01:32:15;;;;;;;86.90;36.53;;;4.00;93.90;;;;;;5030654;28;20087;-74
2022/12/09 01:34:41;;;;;;;78.67;34.63;;;4.00;93.80;;;;;;5031896;28;20460;-78
2022/12/09 01:37:06;;;;;;;75.95;34.78;;;4.00;94.00;;;;;;5029822;28;20309;-75
2022/12/09 01:39:32;;;;;;;69.00;31.10;;;3.90;94.10;;;;;;5028835;28;20045;-74
2022/12/09 01:42:01;;;;;;;73.43;33.37;;;3.90;93.90;;;;;;5030617;28;20030;-74
2022/12/09 01:44:27;;;;;;;69.18;31.17;;;3.90;93.90;;;;;;5032704;28;20053;-75
2022/12/09 01:46:57;;;;;;;67.67;31.43;;;3.90;93.80;;;;;;5031226;28;20075;-75
2022/12/09 01:49:41;;;;;;;68.32;32.72;;;3.90;93.80;;;;;;5031653;28;20033;-76
2022/12/09 01:52:20;;;;;;;64.28;30.98;;;3.80;94.00;;;;;;5030884;28;20301;-77
2022/12/09 01:54:47;;;;;;;70.60;29.95;;;3.90;94.00;;;;;;5027220;28;20041;-78
2022/12/09 01:57:13;;;;;;;60.67;27.25;;;3.90;94.10;;;;;;5031359;28;20037;-76
2022/12/09 01:59:41;;;;;;;63.72;30.20;;;3.90;94.00;;;;;;5031495;28;20028;-77
2022/12/09 02:02:10;;;;;;;62.53;29.52;;;3.80;94.10;;;;;;5031214;28;20079;-77
2022/12/09 02:04:39;;;;;;;56.47;26.70;;;3.90;94.30;;;;;;5031231;28;20037;-77
2022/12/09 02:07:09;;;;;;;60.60;28.10;;;3.80;93.90;;;;;;5031191;28;20029;-78
2022/12/09 02:09:35;;;;;;;55.95;25.23;;;3.80;94.30;;;;;;5030652;28;20052;-74
2022/12/09 02:12:34;;;;;;;56.78;25.02;;;3.80;94.10;;;;;;5029541;28;20033;-74
2022/12/09 02:15:04;;;;;;;42.88;22.75;;;3.70;94.40;;;;;;5028854;28;20183;-74
2022/12/09 02:17:45;;;;;;;54.05;25.02;;;3.70;94.30;;;;;;5029747;28;20175;-73
2022/12/09 02:20:34;;;;;;;39.97;20.40;;;3.80;94.20;;;;;;5031655;28;20040;-74
2022/12/09 02:23:28;;;;;;;38.75;21.10;;;3.70;94.20;;;;;;5029741;28;20040;-73
2022/12/09 02:26:14;;;;;;;38.35;19.60;;;3.70;94.30;;;;;;5023409;28;20044;-74
2022/12/09 02:29:22;;;;;;;37.08;19.60;;;3.70;94.20;;;;;;5028388;28;20523;-74
2022/12/09 02:32:31;;;;;;;34.80;18.27;;;3.70;94.00;;;;;;5029331;28;20413;-73
2022/12/09 02:35:04;;;;;;;37.10;17.83;;;3.70;94.00;;;;;;5026087;28;20120;-73
2022/12/09 02:37:56;;;;;;;35.67;17.45;;;3.60;94.00;;;;;;5043914;28;20032;-74
2022/12/09 02:40:47;;;;;;;35.95;19.30;;;3.70;94.30;;;;;;5029822;28;20056;-73
2022/12/09 02:43:16;;;;;;;33.70;17.27;;;3.60;94.20;;;;;;5031588;28;20112;-74
2022/12/09 02:45:42;;;;;;;32.67;17.10;;;3.60;94.20;;;;;;5028605;28;20110;-73
2022/12/09 02:48:12;;;;;;;33.03;16.55;;;3.60;94.00;;;;;;5028084;28;20492;-75
2022/12/09 02:50:40;;;;;;;34.67;16.75;;;3.60;94.50;;;;;;5025177;28;20116;-74
2022/12/09 02:53:09;;;;;;;33.38;16.85;;;3.60;94.40;;;;;;5030200;28;20073;-75
2022/12/09 02:55:35;;;;;;;28.55;16.67;;;3.60;94.20;;;;;;5030927;28;20053;-74
2022/12/09 02:58:02;;;;;;;34.15;16.65;;;3.70;94.10;;;;;;5027048;28;20133;-75
2022/12/09 03:00:28;;;;;;;28.45;15.90;;;3.50;94.20;;;;;;5031805;28;20044;-77
2022/12/09 03:03:05;;;;;;;32.35;16.15;;;3.50;94.30;;;;;;5029748;28;20025;-75
2022/12/09 03:05:38;;;;;;;26.10;14.30;;;3.60;94.30;;;;;;5028506;28;20786;-75
2022/12/09 03:08:24;;;;;;;29.38;14.98;;;3.60;94.10;;;;;;5030026;28;20029;-76
2022/12/09 03:11:02;;;;;;;25.10;14.27;;;3.70;94.10;;;;;;5029962;28;20033;-76
2022/12/09 03:13:36;;;;;;;27.00;15.50;;;3.60;93.80;;;;;;5030187;28;20026;-77
2022/12/09 03:16:18;;;;;;;28.45;14.68;;;3.50;93.90;;;;;;5030133;28;20029;-75
2022/12/09 03:18:48;;;;;;;28.60;15.27;;;3.60;94.40;;;;;;5029749;28;20021;-75
2022/12/09 03:21:18;;;;;;;28.13;14.43;;;3.70;94.20;;;;;;5031032;28;20038;-76
2022/12/09 03:23:45;;;;;;;24.95;12.85;;;3.70;94.10;;;;;;5027117;28;20065;-77
2022/12/09 03:26:14;;;;;;;22.52;12.82;;;3.70;94.00;;;;;;5030821;28;20030;-77
2022/12/09 03:28:44;;;;;;;29.40;14.55;;;3.70;94.10;;;;;;5025726;28;20505;-77
2022/12/09 03:31:16;;;;;;;31.00;15.32;;;3.60;94.10;;;;;;5026192;28;20776;-77
2022/12/09 03:33:44;;;;;;;24.15;12.77;;;3.70;94.00;;;;;;5026811;28;20520;-75
2022/12/09 03:36:13;;;;;;;25.20;13.52;;;3.70;93.70;;;;;;5030417;28;20921;-77
2022/12/09 03:38:41;;;;;;;31.85;14.68;;;3.70;94.00;;;;;;5027116;28;20030;-78
2022/12/09 03:41:15;;;;;;;27.52;14.50;;;3.70;94.00;;;;;;5030188;28;20104;-76
2022/12/09 03:43:47;;;;;;;27.17;14.35;;;3.70;94.00;;;;;;5027305;28;20654;-77
2022/12/09 03:46:13;;;;;;;32.20;15.30;;;3.70;94.10;;;;;;5030933;28;20753;-78
2022/12/09 03:48:39;;;;;;;29.60;15.75;;;3.70;94.10;;;;;;5027383;28;20072;-78
2022/12/09 03:51:11;;;;;;;27.20;14.73;;;3.60;94.10;;;;;;5030201;28;20049;-77
2022/12/09 03:53:41;;;;;;;30.70;15.10;;;3.70;94.00;;;;;;5029695;28;20292;-78
2022/12/09 03:56:14;;;;;;;29.35;14.95;;;3.70;94.00;;;;;;5028818;28;20025;-75
2022/12/09 03:58:43;;;;;;;28.48;15.02;;;3.70;94.00;;;;;;5028206;28;20037;-77
2022/12/09 04:01:09;;;;;;;29.17;16.17;;;3.70;94.00;;;;;;5030149;28;20079;-74
2022/12/09 04:03:36;;;;;;;27.90;14.30;;;3.70;94.00;;;;;;5033180;28;20037;-77
2022/12/09 04:06:02;;;;;;;28.30;14.48;;;3.70;93.80;;;;;;5032570;28;20048;-77
2022/12/09 04:08:27;;;;;;;30.20;14.03;;;3.70;94.00;;;;;;5034656;28;20423;-76
2022/12/09 04:10:53;;;;;;;27.23;13.50;;;3.70;93.90;;;;;;5033875;28;20017;-77
2022/12/09 04:13:18;;;;;;;28.53;13.67;;;3.70;93.90;;;;;;5033520;28;20103;-77
2022/12/09 04:15:44;;;;;;;29.17;15.27;;;3.60;94.00;;;;;;5031861;28;20315;-77
2022/12/09 04:18:10;;;;;;;25.50;13.97;;;3.70;94.10;;;;;;5033378;28;20121;-76
2022/12/09 04:20:35;;;;;;;29.83;13.80;;;3.70;94.00;;;;;;5031771;28;20113;-75
2022/12/09 04:23:01;;;;;;;27.10;13.63;;;3.70;94.00;;;;;;5032074;28;20029;-74
2022/12/09 04:25:26;;;;;;;25.97;12.83;;;3.70;94.00;;;;;;5033343;28;20432;-76
2022/12/09 04:27:52;;;;;;;25.03;13.47;;;3.70;93.90;;;;;;5032649;28;20029;-73
2022/12/09 04:30:17;;;;;;;22.43;11.93;;;3.70;94.00;;;;;;5032745;28;20037;-77
2022/12/09 04:32:43;;;;;;;23.37;11.93;;;3.70;94.00;;;;;;5031883;28;20048;-76
2022/12/09 04:35:09;;;;;;;21.60;12.20;;;3.70;94.00;;;;;;5032306;28;20580;-77
2022/12/09 04:37:36;;;;;;;26.03;13.73;;;3.70;94.00;;;;;;5033266;28;20477;-77
2022/12/09 04:40:05;;;;;;;21.70;11.05;;;3.70;94.20;;;;;;5032829;28;20032;-76
2022/12/09 04:42:31;;;;;;;21.92;11.43;;;3.60;94.00;;;;;;5030757;28;20071;-79
2022/12/09 04:44:57;;;;;;;16.93;10.03;;;3.60;94.00;;;;;;5032724;28;20026;-77
2022/12/09 04:47:23;;;;;;;20.23;10.70;;;3.60;94.00;;;;;;5032400;28;20052;-73
2022/12/09 04:49:49;;;;;;;16.93;9.97;;;3.50;94.00;;;;;;5037859;28;20083;-76
2022/12/09 04:52:16;;;;;;;17.00;9.27;;;3.50;94.00;;;;;;5032496;28;20268;-76
2022/12/09 04:54:42;;;;;;;16.20;9.00;;;3.40;94.20;;;;;;5031183;28;20025;-78
2022/12/09 04:57:07;;;;;;;14.83;8.27;;;3.40;94.20;;;;;;5033773;28;20083;-76
2022/12/09 04:59:33;;;;;;;16.33;9.70;;;3.40;94.10;;;;;;5032752;28;20497;-77
2022/12/09 05:01:59;;;;;;;15.75;8.82;;;3.40;94.00;;;;;;5032644;28;20037;-78
2022/12/09 05:04:24;;;;;;;14.87;9.17;;;3.40;94.00;;;;;;5032818;28;20052;-73
2022/12/09 05:06:50;;;;;;;14.98;7.85;;;3.40;94.00;;;;;;5031571;28;20033;-76
2022/12/09 05:09:15;;;;;;;13.10;8.03;;;3.30;93.90;;;;;;5033284;28;20120;-76
2022/12/09 05:11:41;;;;;;;13.60;8.30;;;3.30;94.20;;;;;;5034900;28;20405;-77
2022/12/09 05:14:07;;;;;;;16.37;8.37;;;3.30;94.10;;;;;;5031338;28;20478;-77
2022/12/09 05:16:32;;;;;;;14.57;8.53;;;3.40;93.90;;;;;;5032018;28;20041;-78
2022/12/09 05:18:59;;;;;;;12.37;7.73;;;3.30;93.90;;;;;;5032172;28;20040;-78
2022/12/09 05:21:24;;;;;;;;;;;3.30;94.00;;;;;;5033749;28;20029;-76
2022/12/09 05:23:50;;;;;;;14.55;7.95;;;3.30;94.10;;;;;;5032256;28;20400;-76
2022/12/09 05:26:19;;;;;;;18.37;10.57;;;3.20;94.20;;;;;;5032478;28;20029;-76
2022/12/09 05:28:44;;;;;;;12.70;7.65;;;3.30;94.10;;;;;;5030725;28;20141;-77
2022/12/09 05:31:13;;;;;;;14.38;8.52;;;3.20;94.10;;;;;;5031138;28;20108;-77
2022/12/09 05:33:40;;;;;;;14.00;8.13;;;3.20;94.10;;;;;;5031629;28;20045;-77
2022/12/09 05:36:14;;;;;;;;;;;3.30;93.90;;;;;;5032405;28;20072;-76
2022/12/09 05:38:40;;;;;;;13.63;7.95;;;3.30;94.00;;;;;;5031082;28;19909;-77
2022/12/09 05:41:06;;;;;;;16.15;8.35;;;3.20;94.00;;;;;;5030992;28;20034;-76
2022/12/09 05:43:32;;;;;;;;;;;3.20;93.80;;;;;;5031165;28;20079;-78
2022/12/09 05:45:58;;;;;;;13.38;7.82;;;3.20;94.10;;;;;;5031706;28;19963;-76
2022/12/09 05:48:24;;;;;;;16.52;9.23;;;3.20;94.00;;;;;;5030657;28;20030;-77
2022/12/09 05:51:01;;;;;;;16.55;8.27;;;3.20;94.00;;;;;;5031546;28;20026;-79
2022/12/09 05:53:28;;;;;;;14.07;8.25;;;3.20;93.90;;;;;;5030641;28;20052;-77
2022/12/09 05:55:53;;;;;;;14.68;8.30;;;3.20;94.20;;;;;;5031755;28;20121;-77
2022/12/09 05:58:19;;;;;;;13.10;7.63;;;3.10;94.00;;;;;;5031750;28;20108;-78
2022/12/09 06:00:45;;;;;;;13.32;6.93;;;3.20;94.00;;;;;;5029910;28;20288;-76
2022/12/09 06:03:11;;;;;;;12.85;7.75;;;3.20;93.70;;;;;;5030781;28;20060;-78
2022/12/09 06:05:37;;;;;;;11.02;6.63;;;3.10;94.00;;;;;;5030745;28;20060;-78
2022/12/09 06:08:04;;;;;;;9.43;6.07;;;3.20;93.80;;;;;;5028577;28;20034;-76
2022/12/09 06:10:29;;;;;;;;;;;3.20;93.70;;;;;;5031077;28;20511;-75
2022/12/09 06:12:56;;;;;;;9.57;6.03;;;3.20;93.60;;;;;;5031519;28;19913;-76
2022/12/09 06:15:22;;;;;;;10.55;6.30;;;3.10;93.40;;;;;;5028780;28;20034;-77
2022/12/09 06:17:48;;;;;;;11.70;6.30;;;3.10;93.80;;;;;;5030436;28;20040;-78
2022/12/09 06:20:15;;;;;;;9.95;6.25;;;3.20;93.80;;;;;;5031440;28;20061;-76
2022/12/09 06:22:41;;;;;;;11.93;7.75;;;3.20;93.80;;;;;;5031138;28;20088;-77
2022/12/09 06:25:07;;;;;;;13.17;7.20;;;3.10;93.60;;;;;;5026973;28;20022;-76
2022/12/09 06:27:33;;;;;;;13.18;7.07;;;3.10;93.70;;;;;;5027483;28;20029;-74
2022/12/09 06:29:58;;;;;;;13.68;7.90;;;3.20;93.60;;;;;;5028022;28;20577;-73
2022/12/09 06:32:24;;;;;;;12.25;7.88;;;3.20;93.70;;;;;;5029755;28;20108;-74
2022/12/09 06:34:50;;;;;;;18.38;8.00;;;3.20;93.60;;;;;;5029034;28;20112;-76
2022/12/09 06:37:16;;;;;;;13.73;8.17;;;3.20;93.70;;;;;;5030074;28;20030;-76
2022/12/09 06:39:42;;;;;;;12.18;7.50;;;3.20;93.80;;;;;;5027131;28;20094;-77
2022/12/09 06:42:07;;;;;;;11.65;6.85;;;3.20;93.60;;;;;;5029795;28;20108;-76
2022/12/09 06:44:33;;;;;;;14.65;7.97;;;3.10;93.50;;;;;;5029967;28;20030;-75
2022/12/09 06:46:59;;;;;;;14.15;8.02;;;3.20;93.70;;;;;;5028750;28;20073;-75
2022/12/09 06:49:24;;;;;;;13.53;7.67;;;3.10;93.90;;;;;;5029974;28;20103;-76
2022/12/09 06:51:50;;;;;;;14.63;8.13;;;3.10;93.70;;;;;;5025008;28;20387;-77
2022/12/09 06:54:16;;;;;;;15.40;8.17;;;3.20;93.60;;;;;;5029801;28;20041;-76
2022/12/09 06:56:41;;;;;;;17.45;8.80;;;3.10;93.60;;;;;;5028659;28;20033;-77
2022/12/09 06:59:09;;;;;;;13.75;8.02;;;3.20;93.60;;;;;;5029410;28;20041;-72
2022/12/09 07:01:35;;;;;;;13.50;7.70;;;3.20;93.70;;;;;;5029296;28;20030;-76
2022/12/09 07:04:03;;;;;;;15.30;8.00;;;3.10;93.50;;;;;;5025460;28;20036;-76
2022/12/09 07:06:30;;;;;;;15.05;8.27;;;3.10;93.80;;;;;;5029160;28;20037;-71
2022/12/09 07:08:59;;;;;;;18.45;8.82;;;3.10;93.70;;;;;;5026701;28;20026;-73
2022/12/09 07:11:24;;;;;;;17.30;8.65;;;3.00;93.70;;;;;;5027661;28;20553;-74
2022/12/09 07:13:50;;;;;;;19.67;8.48;;;3.10;93.90;;;;;;5027416;28;20095;-76
2022/12/09 07:16:17;;;;;;;13.40;8.40;;;3.20;93.90;;;;;;5027346;28;20272;-76
2022/12/09 07:18:42;;;;;;;18.90;8.88;;;3.20;93.70;;;;;;5026444;28;20034;-74
2022/12/09 07:21:14;;;;;;;14.63;8.27;;;3.10;93.80;;;;;;5027144;28;20025;-75
2022/12/09 07:23:41;;;;;;;15.40;7.93;;;3.10;93.90;;;;;;5024059;28;20033;-75
2022/12/09 07:26:07;;;;;;;;;;;3.20;93.90;;;;;;5028073;28;20068;-76
2022/12/09 07:28:33;;;;;;;15.13;8.35;;;3.20;93.70;;;;;;5030012;28;19913;-76
2022/12/09 07:31:00;;;;;;;12.32;7.07;;;3.20;93.80;;;;;;5029007;28;20029;-75
2022/12/09 07:33:26;;;;;;;;;;;3.20;93.50;;;;;;5027804;28;20036;-75
2022/12/09 07:35:54;;;;;;;16.42;8.55;;;3.20;93.60;;;;;;5028132;28;19916;-76
2022/12/09 07:38:21;;;;;;;15.77;8.98;;;3.20;93.70;;;;;;5030805;28;20029;-75
2022/12/09 07:40:47;;;;;;;16.25;8.73;;;3.20;93.90;;;;;;5034203;28;20092;-75
2022/12/09 07:43:12;;;;;;;13.32;8.07;;;3.20;93.70;;;;;;5033024;28;20680;-75
2022/12/09 07:45:39;;;;;;;15.80;7.97;;;3.20;93.60;;;;;;5033119;28;20033;-74
2022/12/09 07:48:06;;;;;;;13.85;8.30;;;3.20;93.60;;;;;;5032510;28;20037;-72
2022/12/09 07:50:31;;;;;;;21.85;9.35;;;3.20;93.70;;;;;;5032442;28;20108;-74
2022/12/09 07:52:57;;;;;;;16.63;8.48;;;3.20;93.60;;;;;;5033249;28;20128;-74
2022/12/09 07:55:23;;;;;;;13.48;8.20;;;3.20;93.50;;;;;;5032946;28;20068;-75
2022/12/09 07:57:49;;;;;;;18.90;8.73;;;3.20;93.80;;;;;;5032721;28;20556;-75
2022/12/09 08:00:15;;;;;;;12.93;8.23;;;3.30;93.40;;;;;;5033659;28;20044;-76
2022/12/09 08:02:40;;;;;;;12.43;7.47;;;3.20;93.40;;;;;;5031784;28;20056;-75
2022/12/09 08:05:06;;;;;;;15.57;8.17;;;3.20;93.50;;;;;;5032882;28;20098;-76
2022/12/09 08:07:32;;;;;;;10.93;7.07;;;3.20;93.40;;;;;;5033533;28;20312;-75
2022/12/09 08:09:58;;;;;;;16.50;8.60;;;3.20;93.50;;;;;;5032884;28;20084;-76
2022/12/09 08:12:23;;;;;;;13.23;8.67;;;3.30;93.50;;;;;;5033179;28;20299;-75
2022/12/09 08:14:49;;;;;;;14.00;8.03;;;3.30;93.70;;;;;;5031145;28;20738;-75
2022/12/09 08:17:15;;;;;;;14.02;7.82;;;3.20;93.90;;;;;;5032225;28;20614;-74
2022/12/09 08:19:41;;;;;;;13.35;8.35;;;3.20;93.60;;;;;;5032573;28;20076;-76
2022/12/09 08:22:07;;;;;;;14.07;8.05;;;3.20;93.40;;;;;;5033192;28;20029;-74
2022/12/09 08:24:32;;;;;;;14.33;8.13;;;3.20;93.50;;;;;;5032931;28;20041;-74
2022/12/09 08:26:58;;;;;;;14.23;7.67;;;3.20;93.40;;;;;;5033180;28;20032;-73
2022/12/09 08:29:26;;;;;;;16.27;8.85;;;3.30;93.50;;;;;;5033575;28;20342;-75
2022/12/09 08:31:52;;;;;;;15.73;8.70;;;3.30;93.20;;;;;;5030187;28;20485;-75
2022/12/09 08:34:18;;;;;;;12.38;7.70;;;3.30;93.30;;;;;;5033238;28;20037;-74
2022/12/09 08:36:43;;;;;;;14.18;8.25;;;3.30;93.40;;;;;;5032201;28;20498;-75
2022/12/09 08:39:11;;;;;;;14.80;8.15;;;3.40;93.10;;;;;;5032709;28;20021;-75
2022/12/09 08:41:37;;;;;;;15.95;8.57;;;3.40;93.10;;;;;;5027985;28;20139;-78
2022/12/09 08:44:17;;;;;;;12.93;7.60;;;3.40;93.10;;;;;;5030233;28;20041;-71
2022/12/09 08:46:46;;;;;;;13.50;7.97;;;3.40;93.30;;;;;;5029781;28;20044;-75
2022/12/09 08:49:16;;;;;;;14.15;8.00;;;3.40;92.90;;;;;;5031617;28;20079;-72
2022/12/09 08:51:43;;;;;;;12.60;8.15;;;3.50;93.10;;;;;;5029886;28;20080;-75
2022/12/09 08:54:09;;;;;;;14.77;7.47;;;3.50;92.90;;;;;;5029192;28;20033;-75
2022/12/09 08:56:35;;;;;;;13.37;7.47;;;3.50;93.00;;;;;;5027309;28;20025;-76
2022/12/09 08:59:01;;;;;;;13.40;7.45;;;3.50;93.00;;;;;;5029872;28;20037;-71
2022/12/09 09:01:31;;;;;;;;;;;3.50;93.10;;;;;;5031714;28;20013;-73
2022/12/09 09:03:59;;;;;;;14.63;8.93;;;3.50;93.10;;;;;;5031616;28;20296;-76
2022/12/09 09:06:24;;;;;;;16.58;8.98;;;3.50;92.80;;;;;;5030035;28;20025;-73
2022/12/09 09:08:50;;;;;;;13.83;8.30;;;3.50;92.80;;;;;;5030918;28;20360;-76
2022/12/09 09:11:18;;;;;;;15.27;8.03;;;3.50;92.80;;;;;;5031747;28;20034;-81
2022/12/09 09:13:46;;;;;;;11.95;7.03;;;3.50;92.90;;;;;;5031914;28;20049;-75
2022/12/09 09:16:18;;;;;;;12.35;8.13;;;3.50;92.90;;;;;;5031178;28;20041;-76
2022/12/09 09:18:44;;;;;;;13.60;8.45;;;3.50;92.90;;;;;;5027936;28;20062;-78
2022/12/09 09:21:12;;;;;;;17.50;7.75;;;3.50;92.90;;;;;;5031078;28;20064;-74
2022/12/09 09:23:39;;;;;;;15.52;8.25;;;3.50;92.80;;;;;;5030868;28;20120;-73
2022/12/09 09:26:12;;;;;;;12.52;7.75;;;3.60;92.70;;;;;;5029971;28;20029;-74
2022/12/09 09:28:38;;;;;;;11.10;7.28;;;3.60;92.90;;;;;;5028313;28;20033;-74
2022/12/09 09:31:06;;;;;;;13.48;6.95;;;3.60;92.70;;;;;;5029695;28;20497;-73
2022/12/09 09:33:31;;;;;;;14.75;8.65;;;3.60;92.60;;;;;;5028553;28;20512;-74
2022/12/09 09:35:59;;;;;;;15.33;8.33;;;3.60;92.50;;;;;;5030445;28;20040;-75
2022/12/09 09:38:27;;;;;;;18.17;7.82;;;3.60;92.70;;;;;;5031635;28;20287;-73
2022/12/09 09:40:53;;;;;;;13.98;8.45;;;3.60;92.50;;;;;;5029438;28;20423;-74
2022/12/09 09:43:20;;;;;;;;;;;3.60;92.50;;;;;;5032000;28;20033;-76
2022/12/09 09:45:47;;;;;;;11.10;6.72;;;3.70;92.50;;;;;;5028507;28;19913;-74
2022/12/09 09:48:22;;;;;;;11.05;7.13;;;3.70;92.90;;;;;;5027870;28;20026;-74
2022/12/09 09:50:58;;;;;;;13.73;7.32;;;3.60;92.60;;;;;;5022073;28;20397;-74
2022/12/09 09:53:29;;;;;;;15.73;8.40;;;3.60;92.70;;;;;;5027045;28;20049;-72
2022/12/09 09:55:56;;;;;;;13.40;7.57;;;3.70;92.60;;;;;;5028360;28;20021;-72
2022/12/09 09:58:30;;;;;;;11.25;7.20;;;3.60;92.70;;;;;;5027128;28;20057;-74
2022/12/09 10:01:04;;;;;;;11.95;7.22;;;3.70;92.60;;;;;;5045237;28;20111;-77
2022/12/09 10:03:32;;;;;;;12.30;8.10;;;3.70;92.70;;;;;;5030843;28;20032;-75
2022/12/09 10:06:06;;;;;;;12.02;7.53;;;3.70;92.80;;;;;;5027631;28;20049;-77
2022/12/09 10:08:34;;;;;;;12.38;7.57;;;3.80;92.30;;;;;;5028822;28;20025;-74
2022/12/09 10:11:00;;;;;;;13.32;7.30;;;3.90;92.50;;;;;;5029545;28;20108;-74
2022/12/09 10:13:35;;;;;;;16.33;8.02;;;3.80;92.20;;;;;;5026585;28;20131;-74
2022/12/09 10:16:25;;;;;;;17.05;8.30;;;3.80;92.40;;;;;;5025962;28;20021;-72
2022/12/09 10:19:06;;;;;;;9.73;6.45;;;3.90;92.30;;;;;;5028093;28;20082;-75
2022/12/09 10:21:32;;;;;;;11.15;7.18;;;3.90;92.20;;;;;;5027171;28;20029;-73
2022/12/09 10:24:13;;;;;;;12.60;6.85;;;3.90;92.30;;;;;;5028679;28;20382;-72
2022/12/09 10:26:39;;;;;;;12.52;7.72;;;4.00;92.30;;;;;;5030147;28;20113;-74
2022/12/09 10:29:22;;;;;;;13.80;7.72;;;4.00;92.20;;;;;;5026634;28;20524;-73
2022/12/09 10:31:48;;;;;;;12.50;7.65;;;4.10;92.20;;;;;;5028104;28;20397;-74
2022/12/09 10:34:14;;;;;;;13.63;7.87;;;4.10;92.40;;;;;;5030808;28;20041;-73
2022/12/09 10:36:43;;;;;;;12.17;7.13;;;4.10;92.30;;;;;;5029987;28;20033;-76
2022/12/09 10:39:17;;;;;;;15.73;8.10;;;4.10;92.20;;;;;;5026165;28;20032;-72
2022/12/09 10:44:40;;;;;;;14.80;8.73;;;4.20;91.90;;;;;;5025173;28;20078;-73
2022/12/09 10:47:23;;;;;;;11.43;7.37;;;4.20;92.10;;;;;;5021304;28;20042;-74
2022/12/09 10:49:51;;;;;;;15.90;9.23;;;4.20;91.90;;;;;;5027913;28;20112;-73
2022/12/09 10:52:26;;;;;;;19.48;10.00;;;4.30;92.10;;;;;;5018484;28;20489;-74
2022/12/09 10:54:52;;;;;;;13.57;8.43;;;4.20;91.90;;;;;;5019534;28;20113;-74
2022/12/09 10:57:18;;;;;;;16.02;8.20;;;4.30;91.80;;;;;;5024171;28;20037;-72
2022/12/09 11:00:26;;;;;;;10.43;6.10;;;4.30;92.00;;;;;;5027345;28;20026;-73
2022/12/09 11:02:53;;;;;;;10.77;6.20;;;4.30;91.70;;;;;;5022114;28;20334;-73
2022/12/09 11:05:19;;;;;;;13.23;8.02;;;4.30;91.50;;;;;;5027020;28;20024;-73
2022/12/09 11:07:50;;;;;;;11.90;7.33;;;4.40;91.60;;;;;;5028077;28;20112;-74
2022/12/09 11:10:19;;;;;;;11.32;7.70;;;4.40;91.70;;;;;;5028287;28;20280;-74
2022/12/09 11:12:45;;;;;;;11.02;7.50;;;4.30;91.60;;;;;;5030144;28;20035;-74
2022/12/09 11:15:11;;;;;;;11.95;7.43;;;4.40;91.90;;;;;;5031211;28;20386;-74
2022/12/09 11:17:39;;;;;;;13.23;7.47;;;4.40;91.90;;;;;;5033258;28;20028;-74
2022/12/09 11:20:05;;;;;;;9.93;6.28;;;4.50;91.70;;;;;;5033736;28;20091;-74
2022/12/09 11:22:38;;;;;;;13.93;7.40;;;4.50;91.60;;;;;;5031924;28;20026;-74
2022/12/09 11:25:10;;;;;;;12.30;6.97;;;4.50;91.50;;;;;;5031635;28;20037;-73
2022/12/09 11:27:40;;;;;;;13.10;7.25;;;4.40;91.90;;;;;;5033400;28;20559;-72
2022/12/09 11:30:14;;;;;;;13.75;7.00;;;4.50;91.60;;;;;;5033232;28;20493;-72
2022/12/09 11:33:14;;;;;;;15.80;8.57;;;4.50;91.70;;;;;;5029899;28;20087;-72
2022/12/09 11:35:43;;;;;;;13.88;8.77;;;4.50;91.80;;;;;;5032557;28;20079;-76
2022/12/09 11:38:33;;;;;;;13.52;8.35;;;4.60;91.70;;;;;;5031723;28;20104;-74
2022/12/09 11:41:10;;;;;;;16.92;10.93;;;4.70;91.80;;;;;;5032641;28;20026;-76
2022/12/09 11:43:43;;;;;;;13.90;8.20;;;4.80;91.50;;;;;;5032274;28;20025;-74
2022/12/09 11:46:11;;;;;;;12.23;7.32;;;4.70;91.50;;;;;;5033628;28;20491;-76
2022/12/09 11:48:51;;;;;;;9.18;6.32;;;4.60;91.10;;;;;;5028092;28;20508;-73
2022/12/09 11:51:28;;;;;;;8.25;6.03;;;4.50;91.40;;;;;;5029335;28;20064;-73
2022/12/09 11:54:01;;;;;;;11.80;7.07;;;4.50;91.40;;;;;;5031763;28;20072;-73
2022/12/09 11:56:28;;;;;;;11.70;7.32;;;4.50;91.70;;;;;;5029777;28;20052;-74
2022/12/09 11:58:59;;;;;;;13.48;7.68;;;4.50;91.90;;;;;;5031437;28;20033;-74
2022/12/09 12:01:56;;;;;;;12.10;7.68;;;4.50;91.70;;;;;;5028166;28;20040;-73
2022/12/09 12:04:49;;;;;;;11.57;7.32;;;4.50;92.10;;;;;;5030243;28;20017;-72
2022/12/09 12:07:31;;;;;;;10.40;6.65;;;4.60;91.70;;;;;;5031540;28;20044;-74
2022/12/09 12:09:57;;;;;;;13.20;8.45;;;4.40;91.70;;;;;;5027270;28;20404;-74
2022/12/09 12:12:54;;;;;;;11.43;7.43;;;4.60;91.90;;;;;;5032688;28;20394;-73
2022/12/09 12:15:33;;;;;;;10.63;6.65;;;4.60;91.90;;;;;;5031335;28;20412;-73
2022/12/09 12:18:02;;;;;;;11.80;7.18;;;4.50;91.50;;;;;;5031922;28;20039;-74
2022/12/09 12:20:52;;;;;;;10.15;6.88;;;4.60;91.60;;;;;;5028278;28;20018;-74
2022/12/09 12:23:46;;;;;;;11.52;7.15;;;4.70;91.40;;;;;;5029909;28;20056;-74
2022/12/09 12:27:02;;;;;;;15.40;7.22;;;4.70;91.90;;;;;;5030325;28;20032;-74
2022/12/09 12:29:51;;;;;;;10.65;6.32;;;4.70;91.20;;;;;;5024209;28;20029;-74
2022/12/09 12:32:33;;;;;;;13.20;7.65;;;4.60;91.30;;;;;;5029066;28;20033;-74
2022/12/09 12:35:17;;;;;;;10.52;6.65;;;4.60;91.20;;;;;;5031415;28;20584;-73
2022/12/09 12:37:51;;;;;;;13.05;7.40;;;4.70;91.40;;;;;;5029228;28;20040;-74
2022/12/09 12:40:23;;;;;;;14.27;8.02;;;4.60;91.20;;;;;;5033055;28;20494;-74
2022/12/09 12:48:45;;;;;;;12.85;7.70;;;4.50;92.10;;;;;;5033416;28;20048;-73
2022/12/09 12:51:36;;;;;;;13.27;6.57;;;4.50;91.70;;;;;;5031089;28;20029;-74
2022/12/09 12:54:37;;;;;;;11.48;7.18;;;4.40;91.40;;;;;;5031620;28;20044;-74
2022/12/09 12:57:20;;;;;;;12.63;7.10;;;4.40;91.40;;;;;;5018903;28;20037;-73
2022/12/09 13:00:01;;;;;;;10.82;7.00;;;4.50;91.60;;;;;;5030559;28;20030;-74
2022/12/09 13:02:40;;;;;;;14.00;8.30;;;4.50;91.40;;;;;;5031205;28;20021;-73
2022/12/09 13:05:24;;;;;;;14.02;9.02;;;4.50;91.60;;;;;;5031389;28;20451;-75
2022/12/09 13:07:58;;;;;;;14.60;8.57;;;4.50;91.90;;;;;;5030901;28;20033;-74
2022/12/09 13:10:57;;;;;;;33.88;14.18;;;4.50;91.40;;;;;;5032329;28;20025;-74